Time;durP1;ratioP1;P1;durP2;ratioP2;P2;SDS_P1;SDS_P2;PMS_P1;PMS_P2;Temp;Humidity;BMP_temperature;BMP_pressure;BME280_temperature;BME280_humidity;BME280_pressure;Samples;Min_cycle;Max_cycle;Signal;HPM_P1;HPM_P2
2024/01/20 00:00:50;;;;;;;;;17.00;17.00;;;;;4.88;100.00;99350.91;5910005;29;96678;-53
2024/01/20 00:03:53;;;;;;;;;21.60;16.20;;;;;4.92;100.00;99353.06;5895428;29;96431;-53
2024/01/20 00:06:56;;;;;;;;;16.00;14.60;;;;;4.91;100.00;99350.56;5897432;29;96221;-53
2024/01/20 00:10:01;;;;;;;;;20.00;17.00;;;;;4.89;100.00;99347.22;5898681;29;96376;-53
2024/01/20 00:13:05;;;;;;;;;19.00;16.75;;;;;4.89;100.00;99352.59;5907709;29;96306;-53
2024/01/20 00:16:08;;;;;;;;;17.60;16.00;;;;;4.84;100.00;99350.41;5904493;29;96530;-53
2024/01/20 00:19:11;;;;;;;;;23.00;21.00;;;;;4.91;100.00;99351.38;5897947;29;96866;-54
2024/01/20 00:22:15;;;;;;;;;21.40;19.60;;;;;4.92;100.00;99365.56;5897776;29;96302;-54
2024/01/20 00:25:19;;;;;;;;;23.00;21.00;;;;;4.92;100.00;99361.06;5897450;29;96349;-54
2024/01/20 00:28:23;;;;;;;;;20.80;18.40;;;;;4.94;100.00;99358.19;5896634;29;96406;-54
2024/01/20 00:31:26;;;;;;;;;17.00;15.00;;;;;4.84;100.00;99358.41;5898685;29;96394;-53
2024/01/20 00:34:30;;;;;;;;;17.40;16.00;;;;;4.73;100.00;99346.28;5897317;29;97412;-53
2024/01/20 00:37:53;;;;;;;;;16.20;15.00;;;;;4.73;100.00;99343.63;5897442;29;96391;-54
2024/01/20 00:40:57;;;;;;;;;18.00;15.00;;;;;4.93;100.00;99365.41;5900368;29;96232;-53
2024/01/20 00:44:01;;;;;;;;;16.80;14.80;;;;;4.85;100.00;99352.06;5898191;29;96403;-53
2024/01/20 00:47:04;;;;;;;;;13.80;12.80;;;;;5.04;100.00;99367.69;5905986;29;96656;-53
2024/01/20 00:50:08;;;;;;;;;13.40;13.40;;;;;5.04;100.00;99373.03;5920909;29;96377;-56
2024/01/20 00:53:11;;;;;;;;;14.00;13.80;;;;;4.99;100.00;99383.41;5895997;29;98307;-54
2024/01/20 00:56:15;;;;;;;;;15.20;13.20;;;;;5.03;100.00;99379.41;5898417;29;96321;-54
2024/01/20 00:59:19;;;;;;;;;14.40;12.40;;;;;5.04;100.00;99383.72;5885393;29;97223;-58
2024/01/20 01:02:22;;;;;;;;;15.00;13.25;;;;;5.05;100.00;99384.53;5883091;29;96340;-58
2024/01/20 01:05:25;;;;;;;;;13.00;13.00;;;;;5.06;100.00;99394.22;5881912;29;96868;-57
2024/01/20 01:08:28;;;;;;;;;14.60;12.00;;;;;5.10;100.00;99396.38;5883007;29;96412;-58
2024/01/20 01:11:33;;;;;;;;;12.40;11.40;;;;;5.08;100.00;99392.22;5881202;29;98717;-58
2024/01/20 01:14:36;;;;;;;;;16.40;14.40;;;;;5.14;100.00;99402.19;5881206;29;98871;-58
2024/01/20 01:17:39;;;;;;;;;12.00;11.00;;;;;5.10;100.00;99393.72;5882180;29;96378;-58
2024/01/20 01:20:43;;;;;;;;;12.00;11.00;;;;;5.22;100.00;99396.84;5882926;29;96335;-57
2024/01/20 01:23:46;;;;;;;;;15.00;13.67;;;;;5.18;100.00;99395.53;5896455;29;96505;-58
2024/01/20 01:26:50;;;;;;;;;13.40;12.00;;;;;5.19;100.00;99392.66;5882803;29;96532;-58
2024/01/20 01:29:54;;;;;;;;;11.60;10.60;;;;;5.15;100.00;99390.50;5882648;29;96362;-58
2024/01/20 01:32:57;;;;;;;;;15.00;13.50;;;;;5.17;100.00;99388.50;5882754;29;96337;-58
2024/01/20 01:36:00;;;;;;;;;15.60;14.60;;;;;4.91;100.00;99362.06;5883162;29;96399;-57
2024/01/20 01:39:03;;;;;;;;;16.00;12.40;;;;;5.13;100.00;99385.31;5901437;29;96405;-58
2024/01/20 01:42:08;;;;;;;;;16.00;13.75;;;;;5.05;100.00;99358.66;5884267;29;96335;-58
2024/01/20 01:45:11;;;;;;;;;14.25;14.00;;;;;5.25;100.00;99380.44;5881110;29;96310;-58
2024/01/20 01:48:15;;;;;;;;;13.00;12.00;;;;;5.24;100.00;99378.75;5882663;29;96934;-58
2024/01/20 01:51:18;;;;;;;;;15.60;14.00;;;;;5.30;100.00;99382.56;5882759;29;96318;-58
2024/01/20 01:54:22;;;;;;;;;15.00;15.00;;;;;5.31;100.00;99382.41;5882312;29;96366;-58
2024/01/20 01:57:28;;;;;;;;;16.00;12.80;;;;;5.27;100.00;99382.94;5882033;29;97218;-58
2024/01/20 02:00:31;;;;;;;;;16.00;13.80;;;;;5.31;100.00;99385.09;5886031;29;96492;-53
2024/01/20 02:03:34;;;;;;;;;20.00;18.00;;;;;5.34;100.00;99383.88;5916621;23;96625;-55
2024/01/20 02:06:38;;;;;;;;;14.75;13.00;;;;;5.34;100.00;99394.59;5904395;29;96412;-55
2024/01/20 02:09:41;;;;;;;;;17.33;15.00;;;;;5.34;100.00;99399.94;5888902;29;96846;-55
2024/01/20 02:12:46;;;;;;;;;16.00;14.20;;;;;5.33;100.00;99400.94;5902033;29;96664;-56
2024/01/20 02:15:49;;;;;;;;;16.00;15.00;;;;;5.30;100.00;99395.94;5890988;29;97199;-56
2024/01/20 02:18:52;;;;;;;;;16.60;14.60;;;;;5.33;100.00;99398.25;5905394;29;98695;-56
2024/01/20 02:21:56;;;;;;;;;17.60;16.00;;;;;5.35;100.00;99401.59;5908663;29;96770;-56
2024/01/20 02:25:00;;;;;;;;;19.40;16.00;;;;;5.33;100.00;99408.94;5900051;29;96290;-56
2024/01/20 02:28:04;;;;;;;;;15.00;14.50;;;;;5.31;100.00;99403.81;5906427;29;96724;-56
2024/01/20 02:31:07;;;;;;;;;17.00;16.00;;;;;5.34;100.00;99406.09;5907725;29;96287;-56
2024/01/20 02:34:10;;;;;;;;;17.67;15.67;;;;;5.33;100.00;99403.59;5910465;29;96265;-56
2024/01/20 02:37:13;;;;;;;;;16.20;14.20;;;;;5.29;100.00;99397.78;5903150;29;96499;-56
2024/01/20 02:40:18;;;;;;;;;16.75;15.00;;;;;5.33;100.00;99396.41;5906106;29;96705;-56
2024/01/20 02:43:21;;;;;;;;;14.40;14.00;;;;;5.30;100.00;99396.78;5906041;29;96869;-56
2024/01/20 02:46:24;;;;;;;;;14.20;13.20;;;;;5.31;100.00;99401.13;5907606;29;96568;-56
2024/01/20 02:49:27;;;;;;;;;20.00;18.00;;;;;5.32;100.00;99405.47;5907732;29;96354;-56
2024/01/20 02:52:31;;;;;;;;;16.00;14.25;;;;;5.24;100.00;99402.81;5907040;29;96483;-56
2024/01/20 02:55:35;;;;;;;;;17.00;16.00;;;;;5.23;100.00;99401.16;5907422;29;96295;-56
2024/01/20 02:58:38;;;;;;;;;20.00;17.00;;;;;5.14;100.00;99402.19;5906299;29;97159;-56
2024/01/20 03:01:41;;;;;;;;;14.00;13.00;;;;;5.06;100.00;99407.59;5905339;29;98401;-56
2024/01/20 03:04:45;;;;;;;;;14.00;13.00;;;;;4.87;100.00;99408.84;5907735;29;96470;-56
2024/01/20 03:07:48;;;;;;;;;12.20;11.80;;;;;4.78;100.00;99415.22;5907474;29;96850;-56
2024/01/20 03:10:53;;;;;;;;;16.00;14.60;;;;;4.66;100.00;99396.06;5907572;29;96467;-56
2024/01/20 03:13:56;;;;;;;;;14.00;12.80;;;;;4.59;100.00;99410.28;5907042;29;96980;-56
2024/01/20 03:16:59;;;;;;;;;16.00;15.00;;;;;4.50;100.00;99417.44;5907531;29;96857;-56
2024/01/20 03:20:03;;;;;;;;;13.20;12.20;;;;;4.43;100.00;99429.00;5906771;29;99156;-54
2024/01/20 03:23:06;;;;;;;;;18.00;16.80;;;;;4.35;100.00;99427.97;5904239;29;96353;-55
2024/01/20 03:26:11;;;;;;;;;16.25;15.25;;;;;4.31;100.00;99424.00;5906326;29;96373;-55
2024/01/20 03:29:14;;;;;;;;;18.20;15.80;;;;;4.30;100.00;99418.84;5906124;29;96421;-54
2024/01/20 03:32:17;;;;;;;;;14.40;13.80;;;;;4.23;100.00;99416.00;5904852;29;96416;-55
2024/01/20 03:35:22;;;;;;;;;18.40;17.00;;;;;4.17;100.00;99421.16;5907593;29;96292;-55
2024/01/20 03:38:25;;;;;;;;;13.80;12.80;;;;;4.14;100.00;99425.03;5895136;29;96918;-55
2024/01/20 03:41:29;;;;;;;;;16.00;13.50;;;;;4.06;100.00;99424.16;5899236;29;96298;-55
2024/01/20 03:44:33;;;;;;;;;15.20;14.20;;;;;4.02;100.00;99422.84;5917129;29;96053;-55
2024/01/20 03:47:36;;;;;;;;;14.25;13.50;;;;;4.03;100.00;99421.84;5903228;29;96796;-55
2024/01/20 03:50:39;;;;;;;;;15.00;14.00;;;;;3.98;100.00;99417.00;5907147;29;96350;-55
2024/01/20 03:53:42;;;;;;;;;15.40;14.00;;;;;3.88;100.00;99422.50;5907516;29;96340;-55
2024/01/20 03:56:47;;;;;;;;;15.00;14.20;;;;;3.73;100.00;99416.16;5901840;29;96302;-55
2024/01/20 03:59:50;;;;;;;;;16.60;15.00;;;;;3.69;100.00;99416.66;5899682;29;96557;-55
2024/01/20 04:02:53;;;;;;;;;15.00;14.40;;;;;3.60;100.00;99417.66;5895020;29;99420;-55
2024/01/20 04:05:57;;;;;;;;;13.00;13.00;;;;;3.56;100.00;99419.81;5905331;29;96345;-55
2024/01/20 04:09:00;;;;;;;;;13.00;12.00;;;;;3.55;100.00;99425.31;5914980;29;96397;-55
2024/01/20 04:12:05;;;;;;;;;15.00;14.00;;;;;3.56;100.00;99426.97;5899868;29;96417;-55
2024/01/20 04:15:09;;;;;;;;;13.00;12.00;;;;;3.52;100.00;99425.66;5898595;29;96376;-55
2024/01/20 04:18:12;;;;;;;;;16.00;15.00;;;;;3.51;100.00;99430.13;5894099;29;96496;-55
2024/01/20 04:21:16;;;;;;;;;16.40;15.00;;;;;3.53;100.00;99424.63;5901159;29;96728;-55
2024/01/20 04:24:19;;;;;;;;;14.60;13.60;;;;;3.45;100.00;99420.97;5913138;29;96193;-55
2024/01/20 04:27:23;;;;;;;;;14.00;12.75;;;;;3.56;100.00;99430.47;5905968;29;96373;-55
2024/01/20 04:30:27;;;;;;;;;13.50;12.50;;;;;3.48;100.00;99436.63;5927145;29;96606;-56
2024/01/20 04:33:30;;;;;;;;;13.60;12.60;;;;;3.42;100.00;99429.25;5927465;29;96400;-56
2024/01/20 04:36:34;;;;;;;;;14.40;13.00;;;;;3.22;100.00;99395.91;5925636;29;96236;-56
2024/01/20 04:39:37;;;;;;;;;14.60;12.60;;;;;3.41;100.00;99438.28;5924192;29;96836;-56
2024/01/20 04:42:44;;;;;;;;;16.00;13.00;;;;;3.36;100.00;99439.75;5927930;29;96415;-56
2024/01/20 04:45:47;;;;;;;;;12.40;12.00;;;;;3.32;100.00;99439.22;5911965;29;98447;-56
2024/01/20 04:48:50;;;;;;;;;13.00;12.00;;;;;3.28;100.00;99434.38;5926087;29;96688;-56
2024/01/20 04:51:53;;;;;;;;;13.00;12.00;;;;;3.20;100.00;99437.03;5926291;29;96264;-56
2024/01/20 04:54:57;;;;;;;;;11.20;11.00;;;;;3.14;100.00;99438.50;5924688;29;96472;-56
2024/01/20 04:58:01;;;;;;;;;13.80;12.00;;;;;3.17;100.00;99435.53;5925371;29;96318;-56
2024/01/20 05:01:05;;;;;;;;;13.20;11.80;;;;;2.99;100.00;99435.63;5924675;29;96569;-56
2024/01/20 05:04:08;;;;;;;;;13.00;12.50;;;;;2.82;100.00;99417.91;5925705;29;96442;-56
2024/01/20 05:07:11;;;;;;;;;12.00;10.00;;;;;3.03;100.00;99452.09;5913065;29;96484;-56
2024/01/20 05:10:15;;;;;;;;;14.40;13.60;;;;;3.03;100.00;99455.59;5927294;29;96286;-56
2024/01/20 05:13:19;;;;;;;;;10.80;10.80;;;;;3.07;100.00;99449.97;5921089;29;96293;-56
2024/01/20 05:16:22;;;;;;;;;12.60;11.00;;;;;3.10;100.00;99450.47;5928781;29;96339;-56
2024/01/20 05:19:25;;;;;;;;;10.40;10.40;;;;;3.14;100.00;99457.16;5926987;29;97060;-56
2024/01/20 05:22:28;;;;;;;;;15.75;13.00;;;;;3.15;100.00;99455.34;5921861;29;96299;-56
2024/01/20 05:25:31;;;;;;;;;13.00;11.00;;;;;3.18;100.00;99460.31;5907509;29;96845;-56
2024/01/20 05:28:36;;;;;;;;;16.00;14.60;;;;;3.18;100.00;99460.31;5927731;29;96325;-56
2024/01/20 05:31:39;;;;;;;;;19.20;16.20;;;;;3.12;100.00;99461.00;5920347;29;98411;-56
2024/01/20 05:34:42;;;;;;;;;17.00;14.75;;;;;2.94;100.00;99442.41;5925500;29;98036;-56
2024/01/20 05:37:45;;;;;;;;;16.00;15.00;;;;;3.02;100.00;99464.63;5942457;29;96883;-56
2024/01/20 05:40:50;;;;;;;;;16.00;13.00;;;;;2.86;100.00;99474.34;5904518;29;97440;-55
2024/01/20 05:43:54;;;;;;;;;14.50;13.50;;;;;2.64;100.00;99448.28;5898220;29;96356;-55
2024/01/20 05:46:58;;;;;;;;;18.00;16.40;;;;;2.80;100.00;99481.13;5902981;29;97536;-55
2024/01/20 05:50:01;;;;;;;;;16.00;15.00;;;;;2.83;100.00;99487.97;5894498;29;96325;-55
2024/01/20 05:53:04;;;;;;;;;14.00;12.00;;;;;2.65;100.00;99463.22;5908448;29;96550;-55
2024/01/20 05:56:07;;;;;;;;;17.50;15.00;;;;;2.73;100.00;99493.41;5906505;29;98093;-55
2024/01/20 05:59:12;;;;;;;;;18.20;18.00;;;;;2.48;100.00;99492.41;5908104;29;97253;-55
2024/01/20 06:02:15;;;;;;;;;16.50;15.00;;;;;2.51;100.00;99521.38;5900427;29;97011;-55
2024/01/20 06:05:18;;;;;;;;;14.75;13.75;;;;;2.48;100.00;99516.38;5904458;29;96705;-55
2024/01/20 06:08:21;;;;;;;;;20.00;17.25;;;;;2.38;100.00;99510.31;5907335;29;96285;-55
2024/01/20 06:11:25;;;;;;;;;15.00;14.00;;;;;2.20;100.00;99520.09;5895525;29;97164;-55
2024/01/20 06:14:29;;;;;;;;;14.60;14.60;;;;;2.12;100.00;99517.38;5896876;29;96556;-55
2024/01/20 06:17:32;;;;;;;;;19.00;16.40;;;;;2.04;100.00;99525.31;5901716;29;96912;-55
2024/01/20 06:20:35;;;;;;;;;20.50;18.50;;;;;1.99;100.00;99519.59;5904920;29;96405;-55
2024/01/20 06:23:38;;;;;;;;;15.00;13.00;;;;;1.93;100.00;99518.38;5903028;29;96724;-55
2024/01/20 06:26:41;;;;;;;;;17.40;15.20;;;;;1.92;100.00;99521.19;5904538;29;96354;-56
2024/01/20 06:29:46;;;;;;;;;17.00;15.00;;;;;1.94;100.00;99525.38;5905225;29;96500;-54
2024/01/20 06:32:49;;;;;;;;;16.80;15.00;;;;;1.96;100.00;99527.84;5894608;29;96414;-56
2024/01/20 06:35:52;;;;;;;;;16.50;16.25;;;;;2.03;100.00;99534.25;5898569;29;97969;-55
2024/01/20 06:38:55;;;;;;;;;20.00;17.60;;;;;2.11;100.00;99532.50;5890786;29;96532;-55
2024/01/20 06:41:59;;;;;;;;;18.00;16.00;;;;;2.17;100.00;99539.88;5894227;29;96387;-55
2024/01/20 06:45:03;;;;;;;;;19.00;16.25;;;;;2.26;100.00;99548.78;5894943;29;96512;-56
2024/01/20 06:48:07;;;;;;;;;19.00;18.00;;;;;2.41;100.00;99552.56;5908715;29;96289;-56
2024/01/20 06:51:14;;;;;;;;;17.60;16.00;;;;;2.40;100.00;99545.56;5897270;29;98599;-56
2024/01/20 06:54:18;;;;;;;;;16.00;15.00;;;;;2.61;100.00;99547.91;5904614;29;96790;-56
2024/01/20 06:57:21;;;;;;;;;18.00;16.00;;;;;2.49;100.00;99555.28;5905031;29;96399;-56
2024/01/20 07:00:26;;;;;;;;;17.00;14.75;;;;;2.74;100.00;99561.63;5905358;29;97098;-56
2024/01/20 07:03:30;;;;;;;;;20.00;18.00;;;;;2.90;100.00;99561.75;5903583;29;96525;-56
2024/01/20 07:06:33;;;;;;;;;19.75;19.25;;;;;2.92;100.00;99561.59;5903659;29;96728;-56
2024/01/20 07:09:39;;;;;;;;;16.60;15.20;;;;;3.12;100.00;99567.56;5904957;29;96969;-56
2024/01/20 07:12:42;;;;;;;;;19.50;16.50;;;;;3.22;100.00;99565.63;5894461;29;97597;-56
2024/01/20 07:15:46;;;;;;;;;19.00;17.00;;;;;3.34;100.00;99575.00;5902567;29;97359;-56
2024/01/20 07:18:50;;;;;;;;;16.00;15.00;;;;;3.41;100.00;99574.22;5904447;29;96749;-57
2024/01/20 07:21:55;;;;;;;;;16.60;15.40;;;;;3.66;100.00;99572.50;5904859;29;97525;-56
2024/01/20 07:24:58;;;;;;;;;17.40;17.00;;;;;3.96;100.00;99576.38;5904953;29;97504;-56
2024/01/20 07:28:01;;;;;;;;;19.00;17.00;;;;;4.47;100.00;99579.81;5906141;29;96316;-56
2024/01/20 07:31:06;;;;;;;;;17.00;16.00;;;;;5.21;100.00;99579.59;5906614;29;96387;-56
2024/01/20 07:34:09;;;;;;;;;21.50;19.00;;;;;6.90;100.00;99571.63;5905243;29;96820;-56
2024/01/20 07:37:12;;;;;;;;;18.00;17.00;;;;;9.45;90.16;99561.31;5905152;29;97589;-57
2024/01/20 07:40:17;;;;;;;;;18.80;17.00;;;;;11.74;74.26;99573.53;5897415;29;96264;-57
2024/01/20 07:43:20;;;;;;;;;16.00;15.40;;;;;13.48;66.83;99563.91;5900653;29;97034;-57
2024/01/20 07:46:24;;;;;;;;;16.40;14.00;;;;;13.13;67.35;99579.84;5905767;29;96386;-56
2024/01/20 07:49:27;;;;;;;;;15.60;14.60;;;;;12.15;72.16;99582.13;5906389;29;96364;-57
2024/01/20 07:52:31;;;;;;;;;16.40;15.00;;;;;11.03;75.74;99589.59;5906565;29;96297;-56
2024/01/20 07:55:34;;;;;;;;;16.50;14.50;;;;;10.14;77.98;99582.75;5910396;29;96280;-56
2024/01/20 07:58:37;;;;;;;;;14.00;13.00;;;;;9.50;80.26;99591.97;5912284;29;96235;-53
2024/01/20 08:01:41;;;;;;;;;15.20;13.00;;;;;9.11;81.57;99591.69;5906773;29;96370;-54
2024/01/20 08:04:45;;;;;;;;;20.00;18.00;;;;;8.49;84.11;99586.19;5907343;29;96413;-54
2024/01/20 08:07:48;;;;;;;;;16.25;15.00;;;;;8.22;84.46;99599.28;5920715;29;96395;-53
2024/01/20 08:10:51;;;;;;;;;17.60;14.00;;;;;7.92;87.52;99591.47;5906827;29;96336;-54
2024/01/20 08:13:54;;;;;;;;;16.00;15.60;;;;;7.62;88.88;99604.13;5906710;29;96504;-53
2024/01/20 08:16:59;;;;;;;;;19.40;16.00;;;;;7.64;87.41;99619.00;5906862;29;96456;-54
2024/01/20 08:20:02;;;;;;;;;16.40;15.40;;;;;7.47;89.10;99619.38;5907015;29;97050;-54
2024/01/20 08:23:05;;;;;;;;;18.60;16.60;;;;;7.50;88.96;99624.34;5906939;29;97165;-54
2024/01/20 08:26:08;;;;;;;;;18.00;15.00;;;;;7.44;89.15;99633.13;5906844;29;96398;-53
2024/01/20 08:29:12;;;;;;;;;19.20;16.80;;;;;7.36;89.60;99623.34;5905363;29;96699;-53
2024/01/20 08:32:16;;;;;;;;;16.20;15.20;;;;;7.31;89.03;99629.25;5907017;29;97024;-53
2024/01/20 08:35:19;;;;;;;;;17.00;15.60;;;;;7.34;89.58;99623.50;5906929;29;97020;-55
2024/01/20 08:38:22;;;;;;;;;18.80;17.00;;;;;7.09;86.72;99624.75;5893683;29;96695;-55
2024/01/20 08:41:25;;;;;;;;;14.00;13.00;;;;;6.92;87.79;99634.78;5886797;29;96865;-55
2024/01/20 08:44:29;;;;;;;;;17.60;17.00;;;;;6.89;88.63;99627.09;5886007;29;96493;-55
2024/01/20 08:47:34;;;;;;;;;17.00;16.00;;;;;6.80;88.72;99628.19;5903427;29;96356;-55
2024/01/20 08:50:37;;;;;;;;;33.00;30.00;;;;;6.57;88.95;99635.38;5895168;29;97587;-55
2024/01/20 08:53:40;;;;;;;;;16.00;15.00;;;;;6.71;89.77;99629.25;5906321;29;96356;-55
2024/01/20 08:56:43;;;;;;;;;18.20;16.20;;;;;6.59;89.55;99619.97;5906439;29;96222;-55
2024/01/20 08:59:47;;;;;;;;;19.20;17.20;;;;;6.46;88.98;99630.44;5908222;29;96307;-55
2024/01/20 09:02:51;;;;;;;;;17.50;16.50;;;;;6.37;90.33;99631.50;5904450;29;97662;-55
2024/01/20 09:05:54;;;;;;;;;19.40;17.20;;;;;6.27;91.47;99633.56;5907878;29;96905;-55
2024/01/20 09:08:57;;;;;;;;;19.00;16.00;;;;;6.30;90.55;99638.59;5896961;29;96467;-54
2024/01/20 09:12:01;;;;;;;;;18.00;18.00;;;;;6.34;90.39;99654.13;5899162;29;96328;-54
2024/01/20 09:15:05;;;;;;;;;19.40;18.40;;;;;6.34;89.39;99651.44;5899249;29;96951;-54
2024/01/20 09:18:09;;;;;;;;;20.00;18.00;;;;;6.33;89.54;99644.41;5904183;29;96448;-55
2024/01/20 09:21:13;;;;;;;;;18.60;16.80;;;;;6.52;89.50;99660.03;5898839;29;96993;-54
2024/01/20 09:24:16;;;;;;;;;18.00;17.00;;;;;6.57;88.37;99670.22;5900869;29;96546;-53
2024/01/20 09:27:19;;;;;;;;;20.00;19.00;;;;;6.53;87.44;99651.00;5909433;29;96220;-56
2024/01/20 09:30:22;;;;;;;;;20.00;18.00;;;;;6.86;84.99;99659.63;5902954;29;96963;-55
2024/01/20 09:33:27;;;;;;;;;20.20;18.20;;;;;7.08;83.92;99671.38;5889974;29;96218;-54
2024/01/20 09:36:30;;;;;;;;;20.20;19.20;;;;;7.42;83.75;99678.94;5896784;29;96428;-54
2024/01/20 09:39:33;;;;;;;;;22.00;20.00;;;;;7.47;81.37;99681.91;5902331;29;96355;-54
2024/01/20 09:42:37;;;;;;;;;22.80;18.60;;;;;7.58;81.28;99677.94;5902437;29;96293;-54
2024/01/20 09:45:40;;;;;;;;;21.00;20.00;;;;;7.81;81.76;99668.81;5907492;29;96457;-54
2024/01/20 09:48:46;;;;;;;;;21.25;20.00;;;;;8.17;79.22;99668.88;5898781;29;97326;-54
2024/01/20 09:51:51;;;;;;;;;24.00;22.00;;;;;8.46;76.57;99659.94;5907259;29;96816;-54
2024/01/20 09:55:10;;;;;;;;;23.25;20.00;;;;;9.07;76.08;99660.38;5900767;29;96221;-54
2024/01/20 09:58:15;;;;;;;;;22.75;21.75;;;;;9.72;75.24;99660.06;5903061;29;96185;-54
2024/01/20 10:01:19;;;;;;;;;20.60;19.60;;;;;10.48;70.82;99666.25;5908968;29;96784;-54
2024/01/20 10:04:28;;;;;;;;;20.40;18.60;;;;;10.79;68.39;99663.88;5906512;29;96871;-54
2024/01/20 10:07:32;;;;;;;;;15.60;15.60;;;;;11.15;68.64;99666.19;5907564;29;96506;-54
2024/01/20 10:10:36;;;;;;;;;16.00;15.40;;;;;11.41;65.81;99664.56;5907466;29;96973;-54
2024/01/20 10:13:39;;;;;;;;;16.00;13.00;;;;;11.32;63.59;99665.81;5906907;29;96239;-55
2024/01/20 10:16:42;;;;;;;;;13.00;13.00;;;;;11.19;63.05;99653.94;5906941;29;96632;-54
2024/01/20 10:19:49;;;;;;;;;14.00;12.00;;;;;10.88;64.87;99661.81;5909159;29;96781;-56
2024/01/20 10:22:52;;;;;;;;;13.40;12.00;;;;;10.93;65.10;99655.81;5911104;29;96461;-56
2024/01/20 10:26:00;;;;;;;;;13.00;12.20;;;;;11.03;65.02;99650.84;5913481;29;96381;-56
2024/01/20 10:29:03;;;;;;;;;13.75;13.75;;;;;10.94;64.88;99647.50;5912010;29;96643;-56
2024/01/20 10:32:08;;;;;;;;;14.75;13.00;;;;;11.36;65.02;99651.69;5912742;29;96452;-56
2024/01/20 10:35:12;;;;;;;;;12.25;11.25;;;;;11.77;63.35;99629.84;5911928;29;96462;-56
2024/01/20 10:38:19;;;;;;;;;12.00;11.00;;;;;13.12;60.58;99626.91;5913123;29;96297;-56
2024/01/20 10:41:25;;;;;;;;;15.00;12.40;;;;;15.33;54.31;99624.66;5899016;29;96508;-56
2024/01/20 10:44:30;;;;;;;;;14.00;14.00;;;;;17.72;45.79;99610.97;5890867;29;96347;-56
2024/01/20 10:47:36;;;;;;;;;10.00;9.00;;;;;20.30;41.31;99623.59;5911493;29;96274;-56
2024/01/20 10:50:46;;;;;;;;;10.00;9.00;;;;;19.50;38.82;99621.19;5906373;29;96155;-57
2024/01/20 10:53:50;;;;;;;;;10.00;9.00;;;;;18.69;40.61;99623.13;5903749;29;97369;-56
2024/01/20 10:56:54;;;;;;;;;11.40;9.60;;;;;18.66;40.37;99618.19;5899902;29;97506;-56
2024/01/20 10:59:59;;;;;;;;;10.60;9.00;;;;;20.56;39.31;99630.84;5895069;29;97113;-56
2024/01/20 11:03:03;;;;;;;;;11.60;10.60;;;;;23.15;35.58;99629.38;5907174;29;96430;-57
2024/01/20 11:06:19;;;;;;;;;8.75;8.75;;;;;23.34;32.34;99612.97;5895403;29;96458;-57
2024/01/20 11:09:23;;;;;;;;;10.25;9.75;;;;;21.89;32.71;99616.16;5892811;29;96341;-56
2024/01/20 11:12:27;;;;;;;;;11.00;10.00;;;;;20.59;35.95;99626.75;5891555;29;96294;-56
2024/01/20 11:15:31;;;;;;;;;11.00;11.00;;;;;19.40;37.54;99624.66;5892223;29;96476;-56
2024/01/20 11:18:40;;;;;;;;;8.50;8.25;;;;;18.68;39.53;99616.84;5890106;29;96256;-56
2024/01/20 11:21:45;;;;;;;;;10.00;10.00;;;;;18.38;39.48;99614.56;5892514;29;96422;-56
2024/01/20 11:24:48;;;;;;;;;8.20;7.20;;;;;17.78;41.18;99597.41;5906134;29;97603;-56
2024/01/20 11:27:54;;;;;;;;;8.60;7.00;;;;;17.95;41.32;99612.63;5897365;29;96379;-56
2024/01/20 11:30:57;;;;;;;;;7.40;6.40;;;;;18.63;41.06;99605.03;5901576;29;96361;-54
2024/01/20 11:34:02;;;;;;;;;8.50;7.00;;;;;20.80;37.93;99600.22;5903939;29;96251;-55
2024/01/20 11:37:08;;;;;;;;;7.00;6.00;;;;;23.00;35.29;99606.63;5897758;29;96362;-55
2024/01/20 11:40:12;;;;;;;;;10.40;7.40;;;;;24.65;30.90;99602.50;5899957;29;97079;-55
2024/01/20 11:43:15;;;;;;;;;8.00;7.00;;;;;25.99;29.13;99585.16;5903897;29;96503;-55
2024/01/20 11:46:18;;;;;;;;;6.40;5.60;;;;;26.64;27.42;99579.38;5906174;29;96294;-55
2024/01/20 11:49:21;;;;;;;;;7.00;6.00;;;;;27.73;27.39;99567.06;5907582;29;96598;-55
2024/01/20 11:52:26;;;;;;;;;6.60;6.00;;;;;28.25;25.95;99551.47;5904154;29;96366;-55
2024/01/20 11:55:29;;;;;;;;;6.00;6.00;;;;;29.02;25.79;99548.03;5902786;29;96265;-55
2024/01/20 11:58:32;;;;;;;;;6.40;6.00;;;;;29.83;25.45;99559.13;5912061;29;96741;-56
2024/01/20 12:01:37;;;;;;;;;6.20;6.00;;;;;30.36;24.27;99553.03;5906410;29;96370;-56
2024/01/20 12:04:40;;;;;;;;;6.40;6.40;;;;;30.11;23.19;99552.00;5905089;29;96468;-56
2024/01/20 12:07:51;;;;;;;;;9.00;7.60;;;;;30.07;23.33;99551.88;6363329;27;95582;-55
2024/01/20 12:10:54;;;;;;;;;7.75;5.75;;;;;30.24;23.63;99550.97;6334892;27;96357;-55
2024/01/20 12:13:57;;;;;;;;;10.40;8.40;;;;;29.79;22.79;99541.50;6333893;27;96322;-55
2024/01/20 12:17:01;;;;;;;;;9.60;8.60;;;;;29.54;23.88;99521.00;6329188;27;96549;-55
2024/01/20 12:20:05;;;;;;;;;9.00;9.00;;;;;29.19;23.55;99534.09;6329300;27;96220;-58
2024/01/20 12:23:09;;;;;;;;;10.00;9.00;;;;;28.66;24.47;99484.47;6323193;27;97607;-54
2024/01/20 12:26:13;;;;;;;;;9.50;9.00;;;;;29.03;24.11;99544.13;6319287;27;96307;-55
2024/01/20 12:29:17;;;;;;;;;10.00;10.00;;;;;28.55;23.60;99541.44;6318720;27;96381;-56
2024/01/20 12:32:20;;;;;;;;;12.00;9.20;;;;;28.21;24.14;99554.09;6334222;27;96785;-56
2024/01/20 12:35:24;;;;;;;;;12.40;11.00;;;;;27.78;23.97;99559.44;6332416;27;99620;-56
2024/01/20 12:38:28;;;;;;;;;12.00;10.00;;;;;27.34;24.25;99546.47;6316714;27;96376;-56
2024/01/20 12:41:33;;;;;;;;;13.00;12.00;;;;;26.40;24.99;99551.16;6335848;27;96335;-56
2024/01/20 12:44:36;;;;;;;;;13.75;12.50;;;;;26.22;25.27;99558.47;6335544;27;96974;-56
2024/01/20 12:47:40;;;;;;;;;13.60;12.00;;;;;24.75;26.38;99543.63;6321268;27;96780;-56
2024/01/20 12:50:43;;;;;;;;;14.50;13.50;;;;;22.96;27.84;99547.81;6326019;27;96292;-56
2024/01/20 12:53:48;;;;;;;;;15.80;14.80;;;;;21.80;29.88;99568.38;6333133;27;96390;-56
2024/01/20 12:56:51;;;;;;;;;15.50;15.00;;;;;20.69;31.30;99561.84;6333643;27;97603;-56
2024/01/20 12:59:54;;;;;;;;;14.00;13.00;;;;;19.63;33.43;99566.03;6333910;27;96619;-55
2024/01/20 13:02:57;;;;;;;;;16.40;15.00;;;;;18.76;34.76;99561.75;6332536;27;96349;-55
2024/01/20 13:06:00;;;;;;;;;16.20;15.20;;;;;18.05;35.98;99557.38;6331905;27;98403;-55
2024/01/20 13:09:08;;;;;;;;;17.00;13.00;;;;;17.23;37.55;99569.00;6333501;27;96232;-55
2024/01/20 13:12:11;;;;;;;;;14.60;12.00;;;;;16.75;38.41;99550.50;6333234;27;96989;-55
2024/01/20 13:15:15;;;;;;;;;15.50;15.00;;;;;16.06;39.90;99554.31;6333302;27;96802;-56
2024/01/20 13:18:18;;;;;;;;;14.40;14.40;;;;;15.54;41.26;99553.47;6321710;27;96968;-55
2024/01/20 13:21:22;;;;;;;;;17.40;14.00;;;;;15.26;42.65;99561.47;6316586;27;96588;-56
2024/01/20 13:24:27;;;;;;;;;14.00;14.00;;;;;14.70;43.17;99552.78;6316313;27;96414;-55
2024/01/20 13:27:30;;;;;;;;;13.25;13.00;;;;;14.68;44.72;99554.88;6315779;27;96975;-55
2024/01/20 13:30:33;;;;;;;;;17.00;15.00;;;;;14.43;45.62;99548.78;6316479;27;96903;-55
2024/01/20 13:33:37;;;;;;;;;17.00;14.00;;;;;14.30;46.02;99566.03;6317374;27;96246;-55
2024/01/20 13:36:40;;;;;;;;;13.60;13.00;;;;;14.03;46.30;99550.31;6317357;27;96293;-55
2024/01/20 13:39:45;;;;;;;;;14.00;13.00;;;;;14.03;47.20;99564.72;6315649;27;96366;-55
2024/01/20 13:42:48;;;;;;;;;17.00;14.67;;;;;13.72;47.13;99576.56;6309652;27;97199;-55
2024/01/20 13:45:51;;;;;;;;;16.25;14.25;;;;;13.48;48.06;99563.06;6299275;27;96569;-55
2024/01/20 13:48:54;;;;;;;;;14.75;12.75;;;;;13.16;48.89;99560.44;6299524;27;96467;-54
2024/01/20 13:51:57;;;;;;;;;13.60;13.00;;;;;13.17;49.14;99563.97;6309082;27;96712;-54
2024/01/20 13:55:02;;;;;;;;;12.50;12.00;;;;;12.96;49.98;99562.44;6308087;27;96317;-55
2024/01/20 13:58:05;;;;;;;;;13.00;13.00;;;;;12.76;50.82;99568.00;6309920;27;96486;-55
2024/01/20 14:01:08;;;;;;;;;15.50;14.00;;;;;12.65;51.16;99566.03;6312852;27;96268;-55
2024/01/20 14:04:13;;;;;;;;;14.75;13.75;;;;;12.53;51.79;99565.06;6312913;27;97326;-54
2024/01/20 14:07:16;;;;;;;;;17.00;16.00;;;;;12.47;52.64;99565.91;6218902;27;96410;-55